»·PEaware :: ANW942 KSAN-KAMA

ANW942 :: KSAN-KAMA

FLIGHT INFORMATION

Flight Status: Arrived
Operator:
Air Northwest (website)
More flights by this operator :: More flights under this callsign
Pilot: Brian G. (1243)
Aircraft: BOEING 737-800
(B738)
More flights by this aircraft type
Origin: KSAN San Diego Intl-Lindbergh
United States
Destination: KAMA Amarillo Intl
United States
More flights between these airports :: More routes between these airports
Route: BRDR6 IPL BZA GBN PXQ SJN CNX TXO
File this flight plan on PilotEdge
Remarks:
Altitude:
(Current/Filed)
29,000ft
Speed:
(Current/Filed)
447kts
Departed: 15-Apr-13 05:17 PM
Arrived: 15-Apr-13 07:19 PM
Distance/Time
Traveled:
783nm/2:02
Distance/Time
To Go:
Arrived

Flight Plot

Page will automatically refresh every two minutes.


Map Options




Map Legend


Flown Route
Filed Route
Departure Airport
Arrival Airport
Navaid (VOR, NDB)
Fix

Horizontal Profiles

Position Reports

Time Latitude Longitude Heading Altitude Ground
Speed
15-Apr-13 17:02 32.732829 -117.201881 99 24ft 0kts
15-Apr-13 17:03 32.732829 -117.201881 99 24ft 0kts
15-Apr-13 17:04 32.732829 -117.201881 99 24ft 0kts
15-Apr-13 17:05 32.732829 -117.201881 99 24ft 0kts
15-Apr-13 17:06 32.732829 -117.201881 99 24ft 0kts
15-Apr-13 17:07 32.732829 -117.201881 99 24ft 0kts
15-Apr-13 17:08 32.732829 -117.201881 99 24ft 0kts
15-Apr-13 17:09 32.732784 -117.202381 61 24ft 0kts
15-Apr-13 17:10 32.735045 -117.202567 13 24ft 19kts
15-Apr-13 17:11 32.735101 -117.200166 105 24ft 9kts
15-Apr-13 17:12 32.733814 -117.194702 105 24ft 20kts
15-Apr-13 17:13 32.732618 -117.189754 106 24ft 10kts
15-Apr-13 17:14 32.731918 -117.186667 105 24ft 15kts
15-Apr-13 17:15 32.730261 -117.179704 104 24ft 20kts
15-Apr-13 17:16 32.729618 -117.176347 75 24ft 9kts
15-Apr-13 17:17 32.732815 -117.186610 285 24ft 130kts
15-Apr-13 17:18 32.749165 -117.244920 288 3441ft 207kts
15-Apr-13 17:19 32.767365 -117.310930 283 7931ft 211kts
15-Apr-13 17:20 32.725502 -117.338855 153 11733ft 251kts
15-Apr-13 17:21 32.675480 -117.273522 132 14329ft 293kts
15-Apr-13 17:22 32.620657 -117.190178 117 16432ft 351kts
15-Apr-13 17:23 32.617384 -117.068893 92 18486ft 395kts
15-Apr-13 17:24 32.616638 -116.934006 79 20514ft 425kts
15-Apr-13 17:25 32.633414 -116.792382 78 22688ft 439kts
15-Apr-13 17:26 32.651849 -116.649516 80 25171ft 434kts
15-Apr-13 17:27 32.668208 -116.507427 81 27111ft 437kts
15-Apr-13 17:28 32.682944 -116.363410 82 28710ft 443kts
15-Apr-13 17:29 32.697285 -116.214529 82 28922ft 464kts
15-Apr-13 17:30 32.711905 -116.058382 82 28875ft 481kts
15-Apr-13 17:31 32.726190 -115.898823 83 28809ft 493kts
15-Apr-13 17:32 32.739530 -115.736377 84 28793ft 497kts
15-Apr-13 17:33 32.750356 -115.572045 86 28764ft 499kts
15-Apr-13 17:34 32.759427 -115.407911 85 28837ft 498kts
15-Apr-13 17:35 32.767235 -115.243497 87 28795ft 500kts
15-Apr-13 17:36 32.772052 -115.078078 88 28789ft 500kts
15-Apr-13 17:37 32.774601 -114.913226 89 28802ft 499kts
15-Apr-13 17:38 32.775128 -114.748395 91 28836ft 499kts
15-Apr-13 17:39 32.775573 -114.583956 85 28845ft 499kts
15-Apr-13 17:40 32.794644 -114.420220 80 28849ft 499kts
15-Apr-13 17:41 32.816326 -114.257453 81 28846ft 498kts
15-Apr-13 17:42 32.835716 -114.094991 81 28846ft 496kts
15-Apr-13 17:43 32.853150 -113.932640 82 28845ft 495kts
15-Apr-13 17:44 32.869325 -113.771074 82 28895ft 491kts
15-Apr-13 17:45 32.884619 -113.610567 82 28900ft 483kts
15-Apr-13 17:46 32.899047 -113.453042 83 28891ft 477kts
15-Apr-13 17:47 32.912960 -113.296957 83 28908ft 473kts
15-Apr-13 17:48 32.926445 -113.141534 83 28906ft 471kts
15-Apr-13 17:49 32.939343 -112.986661 83 28885ft 471kts
15-Apr-13 17:50 32.951238 -112.831305 84 28895ft 470kts
15-Apr-13 17:51 32.965611 -112.676890 68 28841ft 469kts
15-Apr-13 17:52 33.038069 -112.550600 44 28778ft 463kts
15-Apr-13 17:53 33.125170 -112.436719 43 28730ft 467kts
15-Apr-13 17:54 33.210613 -112.319607 45 28730ft 470kts
15-Apr-13 17:55 33.293320 -112.198593 47 28726ft 472kts
15-Apr-13 17:56 33.373732 -112.075045 48 28723ft 473kts
15-Apr-13 17:57 33.448077 -111.944813 56 28722ft 477kts
15-Apr-13 17:58 33.508824 -111.803247 61 28728ft 479kts
15-Apr-13 17:59 33.564432 -111.658099 62 28733ft 480kts
15-Apr-13 18:00 33.618300 -111.511739 63 28740ft 480kts
15-Apr-13 18:01 33.671543 -111.364662 63 28743ft 481kts
15-Apr-13 18:02 33.724588 -111.216799 63 28740ft 481kts
15-Apr-13 18:03 33.777273 -111.068986 63 28758ft 482kts
15-Apr-13 18:04 33.829930 -110.920492 64 28762ft 484kts
15-Apr-13 18:05 33.882490 -110.771565 64 28785ft 484kts
15-Apr-13 18:06 33.935042 -110.621876 64 27927ft 483kts
15-Apr-13 18:07 33.986036 -110.475126 65 26226ft 469kts
15-Apr-13 18:08 34.035310 -110.331548 65 24522ft 457kts
15-Apr-13 18:09 34.082846 -110.191846 65 23010ft 442kts
15-Apr-13 18:10 34.129139 -110.054906 65 22892ft 447kts
15-Apr-13 18:11 34.177312 -109.913523 65 22896ft 464kts
15-Apr-13 18:12 34.227214 -109.767496 65 22886ft 476kts
15-Apr-13 18:13 34.277626 -109.618607 66 22867ft 482kts
15-Apr-13 18:14 34.328166 -109.466838 66 22854ft 486kts
15-Apr-13 18:15 34.376994 -109.315525 67 22843ft 482kts
15-Apr-13 18:16 34.421631 -109.162481 74 22844ft 483kts
15-Apr-13 18:17 34.438185 -109.001592 87 22846ft 482kts
15-Apr-13 18:18 34.440814 -108.839383 90 22849ft 482kts
15-Apr-13 18:19 34.440241 -108.677166 91 22850ft 482kts
15-Apr-13 18:20 34.438951 -108.514859 91 22843ft 483kts
15-Apr-13 18:21 34.437431 -108.351851 91 22837ft 483kts
15-Apr-13 18:22 34.435669 -108.189297 92 22833ft 483kts
15-Apr-13 18:23 34.430069 -108.027173 94 22827ft 482kts
15-Apr-13 18:24 34.422547 -107.865152 94 22815ft 482kts
15-Apr-13 18:25 34.414933 -107.703284 94 22814ft 482kts
15-Apr-13 18:26 34.409799 -107.540798 92 22812ft 482kts
15-Apr-13 18:27 34.406282 -107.378922 91 22810ft 481kts
15-Apr-13 18:28 34.404556 -107.217399 91 22827ft 479kts
15-Apr-13 18:29 34.402982 -107.056342 91 22826ft 478kts
15-Apr-13 18:30 34.401504 -106.895494 91 22821ft 478kts
15-Apr-13 18:31 34.400091 -106.734826 91 22837ft 477kts
15-Apr-13 18:32 34.398732 -106.574074 91 22867ft 475kts
15-Apr-13 18:33 34.397221 -106.414622 91 22871ft 474kts
15-Apr-13 18:34 34.395370 -106.256607 91 22940ft 468kts
15-Apr-13 18:35 34.391221 -106.099794 92 22981ft 464kts
15-Apr-13 18:36 34.385063 -105.944549 92 22958ft 461kts
15-Apr-13 18:37 34.379275 -105.799796 92 21894ft 410kts
15-Apr-13 18:38 34.377059 -105.664125 88 20786ft 396kts
15-Apr-13 18:39 34.380429 -105.532227 87 19686ft 389kts
15-Apr-13 18:40 34.386662 -105.402750 85 18587ft 382kts
15-Apr-13 18:41 34.394119 -105.275508 85 17488ft 376kts
15-Apr-13 18:42 34.401465 -105.150439 85 16388ft 369kts
15-Apr-13 18:43 34.407935 -105.027683 85 15289ft 362kts
15-Apr-13 18:44 34.414337 -104.905920 85 14185ft 361kts
15-Apr-13 18:45 34.420495 -104.785851 85 13087ft 354kts
15-Apr-13 18:46 34.426956 -104.667343 85 11986ft 353kts
15-Apr-13 18:47 34.434237 -104.549614 86 10887ft 348kts
15-Apr-13 18:48 34.443122 -104.436630 86 9780ft 322kts
15-Apr-13 18:49 34.449294 -104.330274 88 8675ft 313kts
15-Apr-13 18:50 34.454286 -104.226138 88 7577ft 306kts
15-Apr-13 18:51 34.459074 -104.124326 88 6478ft 299kts
15-Apr-13 18:52 34.463513 -104.025196 88 5459ft 287kts
15-Apr-13 18:53 34.466892 -103.930951 88 5304ft 277kts
15-Apr-13 18:54 34.470937 -103.837870 88 7067ft 287kts
15-Apr-13 18:55 34.474289 -103.737201 90 7603ft 302kts
15-Apr-13 18:56 34.476866 -103.635425 90 7605ft 302kts
15-Apr-13 18:57 34.479561 -103.533794 90 7610ft 302kts
15-Apr-13 18:58 34.482447 -103.432322 90 7611ft 302kts
15-Apr-13 18:59 34.496933 -103.333993 54 7633ft 307kts
15-Apr-13 19:00 34.555618 -103.258583 46 7605ft 306kts
15-Apr-13 19:01 34.611274 -103.182439 47 8873ft 312kts
15-Apr-13 19:02 34.668668 -103.102328 47 8998ft 315kts
15-Apr-13 19:03 34.718510 -103.014787 62 9007ft 316kts
15-Apr-13 19:04 34.758332 -102.919841 63 9002ft 315kts
15-Apr-13 19:05 34.797992 -102.824832 63 9002ft 315kts
15-Apr-13 19:06 34.837841 -102.729826 63 8996ft 315kts
15-Apr-13 19:07 34.862031 -102.628555 84 8997ft 313kts
15-Apr-13 19:08 34.874777 -102.523996 84 8995ft 312kts
15-Apr-13 19:09 34.890948 -102.419907 74 9003ft 314kts
15-Apr-13 19:10 34.919416 -102.319321 72 8997ft 314kts
15-Apr-13 19:11 34.948868 -102.219021 72 8998ft 314kts
15-Apr-13 19:12 34.978836 -102.118098 72 7705ft 307kts
15-Apr-13 19:13 35.008105 -102.028060 68 6132ft 262kts
15-Apr-13 19:14 35.045121 -101.955552 55 5437ft 244kts
15-Apr-13 19:15 35.087122 -101.894236 50 5304ft 213kts
15-Apr-13 19:16 35.120045 -101.846444 57 5326ft 173kts
15-Apr-13 19:17 35.152175 -101.801834 51 5156ft 180kts
15-Apr-13 19:18 35.184774 -101.758626 50 4170ft 169kts
15-Apr-13 19:19 35.211690 -101.723820 114 3616ft 5kts

Navigation Log

Ident Type
1. KSAN Airport
2. PGY Navaid
3. BROWS Fix
4. IPL Navaid
5. BZA Navaid
6. GBN Navaid
7. SJN Navaid
8. CNX Navaid
9. TXO Navaid
10. KAMA Airport